Time;durP1;ratioP1;P1;durP2;ratioP2;P2;SDS_P1;SDS_P2;PMS_P1;PMS_P2;Temp;Humidity;BMP_temperature;BMP_pressure;BME280_temperature;BME280_humidity;BME280_pressure;Samples;Min_cycle;Max_cycle;Signal;HPM_P1;HPM_P2
2021/06/01 00:00:23;;;;;;;10.65;4.90;;;;;;;11.80;60.08;96524.44;5039481;28;20417;-67
2021/06/01 00:02:50;;;;;;;10.52;4.50;;;;;;;11.75;60.05;96528.16;5054490;28;20083;-67
2021/06/01 00:05:16;;;;;;;9.93;4.78;;;;;;;11.73;60.58;96520.28;5054143;28;20051;-67
2021/06/01 00:07:42;;;;;;;8.38;4.45;;;;;;;11.71;60.67;96528.00;5054537;28;20088;-67
2021/06/01 00:10:09;;;;;;;9.18;4.68;;;;;;;11.70;60.16;96520.94;5053688;28;20037;-67
2021/06/01 00:12:36;;;;;;;7.38;4.50;;;;;;;11.68;59.98;96520.44;5054269;28;20044;-67
2021/06/01 00:15:03;;;;;;;9.70;4.78;;;;;;;11.62;60.55;96529.91;5053730;28;20045;-67
2021/06/01 00:17:29;;;;;;;10.13;4.80;;;;;;;11.59;60.65;96519.66;5053826;28;20061;-67
2021/06/01 00:19:56;;;;;;;9.20;4.40;;;;;;;11.54;61.35;96528.00;5054239;28;20033;-67
2021/06/01 00:22:23;;;;;;;11.75;4.95;;;;;;;11.47;62.20;96525.72;5053210;28;20052;-67
2021/06/01 00:24:49;;;;;;;10.50;4.90;;;;;;;11.43;61.65;96522.06;5054015;28;20134;-67
2021/06/01 00:27:15;;;;;;;8.85;4.60;;;;;;;11.39;62.83;96521.09;5053594;28;20500;-67
2021/06/01 00:29:41;;;;;;;9.55;4.80;;;;;;;11.35;63.09;96517.38;5043017;28;20128;-67
2021/06/01 00:32:08;;;;;;;12.15;4.70;;;;;;;11.33;62.90;96521.53;5050184;28;20041;-68
2021/06/01 00:34:34;;;;;;;8.43;4.32;;;;;;;11.32;61.50;96511.75;5054101;28;20041;-67
2021/06/01 00:37:01;;;;;;;9.88;4.75;;;;;;;11.30;61.68;96514.00;5053901;28;20041;-67
2021/06/01 00:39:27;;;;;;;9.85;5.05;;;;;;;11.26;61.92;96510.31;5053623;28;20052;-67
2021/06/01 00:41:53;;;;;;;10.55;5.07;;;;;;;11.21;62.12;96514.78;5053770;28;20091;-67
2021/06/01 00:44:19;;;;;;;7.03;4.35;;;;;;;11.18;61.72;96514.63;5053340;28;20041;-67
2021/06/01 00:46:45;;;;;;;7.10;4.22;;;;;;;11.14;61.66;96509.00;5053613;28;20496;-67
2021/06/01 00:49:11;;;;;;;10.23;5.28;;;;;;;11.07;62.21;96514.13;5053030;28;20076;-67
2021/06/01 00:51:37;;;;;;;7.80;4.65;;;;;;;11.05;62.63;96515.56;5053263;28;20135;-67
2021/06/01 00:54:05;;;;;;;9.25;4.60;;;;;;;10.99;62.73;96517.63;5052910;28;20503;-67
2021/06/01 00:56:31;;;;;;;10.68;4.90;;;;;;;10.95;63.87;96514.72;5053511;28;20037;-67
2021/06/01 00:58:57;;;;;;;10.02;5.15;;;;;;;10.91;63.79;96516.50;5048085;28;20037;-67
2021/06/01 01:01:24;;;;;;;9.57;5.18;;;;;;;10.90;63.47;96514.06;5043894;28;20048;-67
2021/06/01 01:03:51;;;;;;;10.27;5.32;;;;;;;10.86;64.32;96513.91;5053461;28;20124;-67
2021/06/01 01:06:44;;;;;;;10.15;5.38;;;;;;;10.84;64.43;96515.31;5052806;28;20048;-67
2021/06/01 01:09:14;;;;;;;12.50;5.63;;;;;;;10.81;64.10;96510.53;5052731;28;20384;-67
2021/06/01 01:11:55;;;;;;;9.02;5.32;;;;;;;10.76;64.84;96505.22;5053534;28;20134;-68
2021/06/01 01:14:26;;;;;;;9.85;5.28;;;;;;;10.74;64.46;96499.28;5052725;28;20061;-68
2021/06/01 01:16:57;;;;;;;8.68;5.32;;;;;;;10.70;64.71;96505.38;5053204;28;20420;-67
2021/06/01 01:19:44;;;;;;;9.90;4.88;;;;;;;10.68;65.22;96501.34;5052933;28;20492;-67
2021/06/01 01:22:10;;;;;;;12.48;5.82;;;;;;;10.67;64.03;96505.97;5052712;28;20052;-67
2021/06/01 01:24:48;;;;;;;11.45;5.55;;;;;;;10.64;64.49;96495.69;5052899;28;20048;-67
2021/06/01 01:27:19;;;;;;;9.07;5.10;;;;;;;10.61;65.25;96504.53;5052653;28;20403;-67
2021/06/01 01:29:48;;;;;;;9.95;5.43;;;;;;;10.56;65.92;96499.22;5051578;28;20045;-66
2021/06/01 01:32:25;;;;;;;7.90;4.97;;;;;;;10.52;66.30;96500.94;5052317;28;20064;-67
2021/06/01 01:34:55;;;;;;;9.20;4.80;;;;;;;10.53;64.98;96497.09;5053060;28;20047;-67
2021/06/01 01:37:22;;;;;;;10.68;5.18;;;;;;;10.54;65.06;96504.16;5052384;28;20400;-67
2021/06/01 01:39:52;;;;;;;13.35;6.05;;;;;;;10.53;65.28;96499.81;5052691;28;20047;-67
2021/06/01 01:42:19;;;;;;;9.02;4.90;;;;;;;10.50;65.07;96492.31;5052255;28;20057;-67
2021/06/01 01:44:50;;;;;;;12.88;5.43;;;;;;;10.47;64.99;96495.63;5052551;28;20044;-67
2021/06/01 01:50:05;;;;;;;14.25;6.05;;;;;;;10.39;66.85;96493.69;5052176;28;20107;-67
2021/06/01 01:52:35;;;;;;;12.23;5.38;;;;;;;10.39;65.70;96490.97;5052111;28;20048;-67
2021/06/01 01:55:01;;;;;;;10.45;5.35;;;;;;;10.36;66.06;96491.59;5052189;28;20045;-68
2021/06/01 01:57:27;;;;;;;11.98;5.45;;;;;;;10.36;65.04;96489.66;5052345;28;20037;-67
2021/06/01 01:59:54;;;;;;;12.48;6.05;;;;;;;10.31;65.88;96489.81;5051455;28;20041;-67
2021/06/01 02:02:20;;;;;;;12.60;6.15;;;;;;;10.28;66.71;96497.78;5051729;28;20064;-67
2021/06/01 02:04:49;;;;;;;9.55;5.78;;;;;;;10.27;66.88;96496.19;5052169;28;20045;-67
2021/06/01 02:07:16;;;;;;;10.50;5.57;;;;;;;10.24;67.09;96494.09;5051642;28;20049;-67
2021/06/01 02:09:42;;;;;;;10.65;5.35;;;;;;;10.20;66.37;96491.97;5052161;28;20067;-67
2021/06/01 02:12:09;;;;;;;11.07;5.38;;;;;;;10.18;66.83;96487.97;5051676;28;20053;-67
2021/06/01 02:14:35;;;;;;;11.93;6.10;;;;;;;10.16;66.82;96487.44;5051930;28;20051;-67
2021/06/01 02:17:02;;;;;;;14.90;5.60;;;;;;;10.15;67.13;96492.09;5051694;28;20044;-68
2021/06/01 02:19:28;;;;;;;13.38;5.72;;;;;;;10.17;65.99;96491.78;5051865;28;20045;-67
2021/06/01 02:24:48;;;;;;;11.27;6.05;;;;;;;10.14;65.71;96479.59;5051685;28;20473;-67
2021/06/01 02:27:20;;;;;;;10.40;5.63;;;;;;;10.10;66.51;96481.34;5039171;28;20453;-67
2021/06/01 02:30:00;;;;;;;15.30;5.93;;;;;;;10.10;65.71;96486.78;5031764;28;20068;-67
2021/06/01 02:32:29;;;;;;;11.52;5.78;;;;;;;10.05;65.23;96478.75;5050808;28;20463;-66
2021/06/01 02:35:00;;;;;;;12.45;6.85;;;;;;;10.00;66.73;96481.59;5051549;28;20045;-67
2021/06/01 02:37:26;;;;;;;11.77;5.72;;;;;;;9.98;66.93;96489.28;5051534;28;20037;-67
2021/06/01 02:39:54;;;;;;;12.43;5.93;;;;;;;9.98;66.75;96489.28;5051703;28;20049;-67
2021/06/01 02:42:21;;;;;;;10.93;5.90;;;;;;;9.98;66.47;96483.03;5051066;28;22277;-67
2021/06/01 02:44:47;;;;;;;11.90;6.25;;;;;;;9.95;66.50;96489.88;5051380;28;20090;-67
2021/06/01 02:47:13;;;;;;;12.50;6.30;;;;;;;9.93;66.75;96486.69;5050997;28;20044;-67
2021/06/01 02:49:39;;;;;;;13.02;6.40;;;;;;;9.89;67.23;96485.69;5051614;28;20067;-67
2021/06/01 02:52:06;;;;;;;16.00;7.10;;;;;;;9.86;67.26;96480.84;5050487;28;20053;-67
2021/06/01 02:54:32;;;;;;;12.52;6.60;;;;;;;9.84;67.90;96480.38;5051351;28;20044;-67
2021/06/01 02:57:00;;;;;;;16.27;7.50;;;;;;;9.82;67.91;96485.34;5048422;28;20068;-67
2021/06/01 02:59:26;;;;;;;13.68;6.68;;;;;;;9.84;67.79;96480.38;5030972;28;20041;-67
2021/06/01 03:01:52;;;;;;;13.07;6.55;;;;;;;9.85;67.11;96479.25;5046200;28;20037;-67
2021/06/01 03:04:18;;;;;;;13.75;6.93;;;;;;;9.82;68.08;96485.34;5050636;28;20049;-67
2021/06/01 03:06:45;;;;;;;10.38;6.88;;;;;;;9.78;68.14;96478.91;5051155;28;20475;-67
2021/06/01 03:09:11;;;;;;;13.00;7.30;;;;;;;9.77;68.48;96477.28;5050670;28;20048;-67
2021/06/01 03:11:37;;;;;;;10.73;6.60;;;;;;;9.76;68.60;96486.53;5051070;28;20048;-67
2021/06/01 03:14:05;;;;;;;12.30;6.57;;;;;;;9.75;68.73;96496.63;5050639;28;20152;-67
2021/06/01 03:16:31;;;;;;;18.90;7.47;;;;;;;9.74;68.56;96486.06;5051077;28;20049;-67
2021/06/01 03:18:57;;;;;;;14.50;7.47;;;;;;;9.71;69.10;96484.78;5051054;28;20041;-67
2021/06/01 03:21:24;;;;;;;12.65;6.75;;;;;;;9.73;67.79;96489.91;5050488;28;20040;-67
2021/06/01 03:23:50;;;;;;;14.98;7.38;;;;;;;9.73;67.03;96487.19;5050753;28;20041;-67
2021/06/01 03:26:16;;;;;;;12.15;6.63;;;;;;;9.72;67.16;96488.28;5050440;28;20048;-67
2021/06/01 03:28:42;;;;;;;13.55;6.85;;;;;;;9.70;66.90;96485.06;5033780;28;20053;-67
2021/06/01 03:31:10;;;;;;;14.02;7.57;;;;;;;9.65;66.81;96489.50;5039008;28;20048;-67
2021/06/01 03:33:37;;;;;;;15.63;8.18;;;;;;;9.59;68.27;96485.31;5049785;28;20420;-67
2021/06/01 03:36:03;;;;;;;14.50;7.40;;;;;;;9.58;68.52;96491.88;5050226;28;20041;-67
2021/06/01 03:38:31;;;;;;;16.67;8.30;;;;;;;9.57;68.56;96484.81;5050644;28;20056;-66
2021/06/01 03:40:57;;;;;;;13.27;7.60;;;;;;;9.57;68.43;96490.25;5050784;28;20045;-67
2021/06/01 03:43:24;;;;;;;13.88;7.10;;;;;;;9.60;67.78;96489.63;5050305;28;20044;-67
2021/06/01 03:45:50;;;;;;;15.57;7.70;;;;;;;9.60;67.79;96489.63;5050708;28;20045;-67
2021/06/01 03:48:17;;;;;;;13.70;7.65;;;;;;;9.59;68.29;96487.22;5050270;28;20045;-66
2021/06/01 03:50:43;;;;;;;16.02;8.48;;;;;;;9.58;68.69;96486.44;5050751;28;20433;-66
2021/06/01 03:53:09;;;;;;;13.93;7.15;;;;;;;9.60;68.42;96481.47;5050007;28;20056;-67
2021/06/01 03:55:36;;;;;;;18.45;8.15;;;;;;;9.62;67.89;96481.19;5050476;28;20124;-66
2021/06/01 03:58:02;;;;;;;13.75;7.88;;;;;;;9.63;68.87;96478.16;5038562;28;20069;-67
2021/06/01 04:00:30;;;;;;;15.55;8.23;;;;;;;9.65;68.63;96480.56;5033760;28;20049;-67
2021/06/01 04:02:56;;;;;;;14.43;7.38;;;;;;;9.68;68.16;96479.94;5050626;28;20128;-67
2021/06/01 04:05:24;;;;;;;17.33;7.18;;;;;;;9.73;68.16;96489.91;5049980;28;20056;-66
2021/06/01 04:07:50;;;;;;;16.60;7.03;;;;;;;9.75;68.00;96484.94;5050549;28;20558;-67
2021/06/01 04:10:16;;;;;;;11.85;6.25;;;;;;;9.71;67.90;96490.22;5050028;28;20049;-67
2021/06/01 04:12:43;;;;;;;15.35;6.68;;;;;;;9.66;67.94;96488.41;5050358;28;20077;-66
2021/06/01 04:15:10;;;;;;;13.85;7.20;;;;;;;9.64;68.46;96484.38;5049914;28;20451;-67
2021/06/01 04:17:36;;;;;;;19.08;7.40;;;;;;;9.63;69.04;96488.22;5050535;28;20200;-66
2021/06/01 04:20:06;;;;;;;14.93;7.25;;;;;;;9.63;68.99;96488.22;5049863;28;20045;-67
2021/06/01 04:22:33;;;;;;;15.82;7.18;;;;;;;9.62;69.08;96487.41;5050155;28;20045;-67
2021/06/01 04:24:59;;;;;;;14.07;7.30;;;;;;;9.63;69.50;96488.22;5050160;28;20041;-67
2021/06/01 04:27:25;;;;;;;13.43;7.30;;;;;;;9.67;69.66;96490.03;5043357;28;20050;-67
2021/06/01 04:29:51;;;;;;;13.32;7.22;;;;;;;9.73;69.78;96487.97;5030487;28;20126;-67
2021/06/01 04:32:17;;;;;;;12.02;7.53;;;;;;;9.79;69.32;96491.38;5047877;28;20492;-67
2021/06/01 04:34:44;;;;;;;13.75;8.23;;;;;;;9.88;69.22;96489.53;5050317;28;20099;-67
2021/06/01 04:37:10;;;;;;;15.68;7.80;;;;;;;9.94;68.82;96488.28;5049813;28;20049;-67
2021/06/01 04:39:37;;;;;;;13.50;7.40;;;;;;;10.01;68.19;96494.06;5050335;28;20507;-67
2021/06/01 04:42:04;;;;;;;17.27;8.52;;;;;;;10.05;68.24;96495.06;5049533;28;20508;-68
2021/06/01 04:44:30;;;;;;;13.35;7.25;;;;;;;10.11;68.46;96493.81;5051391;28;20496;-67
2021/06/01 04:46:56;;;;;;;16.77;8.27;;;;;;;10.18;68.56;96490.69;5053729;28;20056;-67
2021/06/01 04:49:22;;;;;;;15.38;8.55;;;;;;;10.27;67.82;96490.75;5053287;28;20442;-67
2021/06/01 04:51:48;;;;;;;13.65;7.63;;;;;;;10.37;67.64;96493.19;5053574;28;20048;-67
2021/06/01 04:54:14;;;;;;;13.63;7.60;;;;;;;10.45;68.30;96492.44;5053079;28;20171;-67
2021/06/01 04:56:41;;;;;;;15.27;7.78;;;;;;;10.53;68.52;96488.13;5053594;28;20064;-67
2021/06/01 04:59:07;;;;;;;12.73;7.72;;;;;;;10.58;68.73;96486.06;5033611;28;20116;-67
2021/06/01 05:01:33;;;;;;;16.25;8.00;;;;;;;10.63;68.53;96483.22;5045665;28;20500;-67
2021/06/01 05:03:59;;;;;;;14.07;8.07;;;;;;;10.68;68.60;96480.34;5053380;28;20086;-67
2021/06/01 05:06:25;;;;;;;16.50;8.02;;;;;;;10.75;67.12;96481.81;5052803;28;20041;-67
2021/06/01 05:08:51;;;;;;;17.85;8.05;;;;;;;10.80;66.32;96481.66;5053364;28;20128;-67
2021/06/01 05:11:17;;;;;;;14.27;7.57;;;;;;;10.87;65.96;96479.28;5052716;28;20045;-67
2021/06/01 05:13:45;;;;;;;14.13;7.35;;;;;;;10.93;65.70;96480.75;5052887;28;20555;-67
2021/06/01 05:16:11;;;;;;;16.20;8.18;;;;;;;11.01;65.36;96482.66;5052298;28;20044;-68
2021/06/01 05:18:37;;;;;;;15.38;7.95;;;;;;;11.09;65.38;96484.63;5053038;28;20044;-67
2021/06/01 05:21:03;;;;;;;14.27;7.63;;;;;;;11.17;64.46;96486.56;5052613;28;20692;-67
2021/06/01 05:23:29;;;;;;;13.25;6.90;;;;;;;11.23;63.79;96485.31;5052881;28;20045;-67
2021/06/01 05:25:55;;;;;;;16.58;8.02;;;;;;;11.30;64.10;96478.56;5052950;28;20087;-67
2021/06/01 05:28:21;;;;;;;17.92;8.68;;;;;;;11.38;63.90;96481.31;5038837;28;20051;-67
2021/06/01 05:30:57;;;;;;;13.18;7.25;;;;;;;11.46;63.79;96485.16;5038593;28;20051;-67
2021/06/01 05:33:25;;;;;;;15.20;6.78;;;;;;;11.53;63.63;96482.72;5052474;28;20045;-67
2021/06/01 05:35:52;;;;;;;12.93;7.05;;;;;;;11.60;63.45;96477.63;5052731;28;20507;-67
2021/06/01 05:38:19;;;;;;;11.00;7.35;;;;;;;11.68;62.92;96489.63;5041181;28;20056;-68
2021/06/01 05:40:45;;;;;;;14.55;7.82;;;;;;;11.77;63.81;96477.59;5032659;28;20049;-67
2021/06/01 05:43:11;;;;;;;12.75;6.88;;;;;;;11.92;63.59;96486.44;5032469;28;20041;-68
2021/06/01 05:45:37;;;;;;;18.25;8.23;;;;;;;11.98;63.44;96483.22;5032223;28;20048;-72
2021/06/01 05:48:06;;;;;;;12.02;7.00;;;;;;;12.09;63.55;96482.88;5032140;28;20119;-72
2021/06/01 05:50:32;;;;;;;12.82;6.40;;;;;;;12.19;63.33;96483.34;5032954;28;20053;-72
2021/06/01 05:52:59;;;;;;;24.73;6.90;;;;;;;12.28;62.36;96478.66;5032728;28;20045;-72
2021/06/01 05:55:25;;;;;;;12.48;7.28;;;;;;;12.36;61.77;96478.97;5031689;28;20049;-72
2021/06/01 05:57:51;;;;;;;10.90;7.05;;;;;;;12.47;61.33;96472.81;5032365;28;20045;-72
2021/06/01 06:00:18;;;;;;;11.93;6.55;;;;;;;12.58;61.76;96472.44;5033750;28;20558;-72
2021/06/01 06:02:44;;;;;;;11.82;7.50;;;;;;;12.67;62.54;96474.03;5052565;28;20044;-72
2021/06/01 06:05:12;;;;;;;13.25;6.45;;;;;;;12.76;62.26;96473.97;5052130;28;20102;-72
2021/06/01 06:07:39;;;;;;;14.02;8.27;;;;;;;12.90;61.84;96476.50;5052519;28;20044;-71
2021/06/01 06:10:06;;;;;;;14.15;7.32;;;;;;;13.01;62.22;96475.00;5052185;28;20048;-71
2021/06/01 06:12:33;;;;;;;17.77;8.70;;;;;;;13.13;61.80;96472.34;5052260;28;20188;-71
2021/06/01 06:14:59;;;;;;;11.85;6.68;;;;;;;13.25;62.78;96477.09;5052103;28;20064;-71
2021/06/01 06:17:30;;;;;;;15.95;6.85;;;;;;;13.33;60.55;96479.00;5051860;28;20047;-71
2021/06/01 06:19:58;;;;;;;12.20;7.32;;;;;;;13.39;60.71;96469.44;5052081;28;20045;-71
2021/06/01 06:22:25;;;;;;;10.65;6.20;;;;;;;13.47;60.21;96470.53;5051600;28;20096;-71
2021/06/01 06:24:51;;;;;;;16.33;8.10;;;;;;;13.57;59.59;96476.41;5050963;28;20047;-71
2021/06/01 06:27:17;;;;;;;11.93;6.38;;;;;;;13.69;59.69;96478.41;5045739;28;20041;-71
2021/06/01 06:29:43;;;;;;;14.40;6.78;;;;;;;13.81;59.10;96480.38;5030273;28;20050;-72
2021/06/01 06:32:10;;;;;;;14.10;8.38;;;;;;;13.88;57.05;96471.63;5048636;28;20107;-71
2021/06/01 06:34:36;;;;;;;15.40;8.32;;;;;;;13.95;57.50;96480.09;5052154;28;20040;-71
2021/06/01 06:37:02;;;;;;;9.75;6.30;;;;;;;14.03;57.69;96479.22;5051530;28;20044;-71
2021/06/01 06:39:29;;;;;;;12.07;7.45;;;;;;;14.12;56.53;96485.41;5051848;28;20049;-71
2021/06/01 06:41:55;;;;;;;11.25;5.55;;;;;;;14.20;56.92;96484.53;5052014;28;20053;-71
2021/06/01 06:44:21;;;;;;;10.73;5.82;;;;;;;14.32;57.41;96490.03;5051424;28;20131;-71
2021/06/01 06:47:02;;;;;;;6.68;5.00;;;;;;;14.41;56.21;96481.72;5051934;28;20587;-71
2021/06/01 06:49:28;;;;;;;9.38;5.18;;;;;;;14.56;55.48;96480.28;5051740;28;20041;-71
2021/06/01 06:51:54;;;;;;;10.20;4.95;;;;;;;14.68;54.09;96490.47;5051754;28;20067;-71
2021/06/01 06:54:20;;;;;;;10.57;4.88;;;;;;;14.79;54.16;96483.41;5051281;28;20053;-71
2021/06/01 06:56:47;;;;;;;13.88;5.18;;;;;;;14.87;52.04;96477.00;5050237;28;20511;-71
2021/06/01 06:59:13;;;;;;;7.78;4.78;;;;;;;14.95;50.77;96484.31;5031285;28;20046;-71
2021/06/01 07:01:39;;;;;;;7.40;4.78;;;;;;;15.01;49.77;96479.41;5044588;28;20465;-71
2021/06/01 07:04:05;;;;;;;9.23;4.28;;;;;;;15.07;50.82;96480.75;5051218;28;20102;-71
2021/06/01 07:06:31;;;;;;;8.13;4.30;;;;;;;15.14;51.56;96475.53;5051323;28;20041;-71
2021/06/01 07:08:57;;;;;;;10.35;4.40;;;;;;;15.23;51.96;96473.44;5051212;28;20037;-71
2021/06/01 07:11:23;;;;;;;9.90;4.70;;;;;;;15.32;50.80;96468.63;5050899;28;20041;-71
2021/06/01 07:14:01;;;;;;;7.45;4.22;;;;;;;15.39;51.17;96471.56;5051474;28;20037;-71
2021/06/01 07:16:27;;;;;;;8.80;4.93;;;;;;;15.49;51.22;96466.75;5050981;28;20049;-71
2021/06/01 07:18:53;;;;;;;7.93;4.25;;;;;;;15.60;50.11;96470.63;5051463;28;20178;-71
2021/06/01 07:21:19;;;;;;;10.95;4.88;;;;;;;15.68;49.00;96474.41;5050658;28;20512;-71
2021/06/01 07:23:45;;;;;;;7.75;4.45;;;;;;;15.75;49.24;96480.09;5051217;28;20036;-71
2021/06/01 07:26:11;;;;;;;11.02;4.25;;;;;;;15.85;48.65;96479.63;5050681;28;20079;-71
2021/06/01 07:28:38;;;;;;;8.65;4.15;;;;;;;15.95;49.40;96475.56;5035804;28;20044;-71
2021/06/01 07:31:07;;;;;;;8.30;4.78;;;;;;;16.05;49.36;96477.81;5038915;28;20044;-71
2021/06/01 07:33:34;;;;;;;6.72;4.05;;;;;;;16.14;49.08;96478.47;5051146;28;20069;-71
2021/06/01 07:36:00;;;;;;;7.80;4.05;;;;;;;16.20;46.92;96470.78;5050972;28;20451;-71
2021/06/01 07:38:27;;;;;;;7.97;4.70;;;;;;;16.27;48.00;96480.00;5050798;28;20423;-72
2021/06/01 07:40:53;;;;;;;10.70;4.00;;;;;;;16.40;49.57;96476.03;5050933;28;20500;-71
2021/06/01 07:43:20;;;;;;;7.78;3.80;;;;;;;16.46;46.45;96478.53;5050811;28;20447;-71
2021/06/01 07:45:46;;;;;;;11.63;4.07;;;;;;;16.54;46.56;96474.81;5051000;28;20048;-71
2021/06/01 07:48:13;;;;;;;7.75;3.85;;;;;;;16.65;44.88;96475.88;5050438;28;20049;-71
2021/06/01 07:50:39;;;;;;;9.20;3.80;;;;;;;16.75;44.77;96472.63;5050862;28;20041;-71
2021/06/01 07:53:05;;;;;;;13.30;4.03;;;;;;;16.86;44.22;96470.13;5050237;28;20049;-71
2021/06/01 07:55:32;;;;;;;9.32;3.90;;;;;;;16.98;44.54;96469.25;5050945;28;20104;-71
2021/06/01 07:57:58;;;;;;;11.43;3.65;;;;;;;17.06;43.69;96471.81;5040249;28;20045;-71
2021/06/01 08:00:26;;;;;;;11.98;3.72;;;;;;;17.24;43.76;96475.00;5032990;28;20636;-71
2021/06/01 08:02:52;;;;;;;8.77;3.65;;;;;;;17.41;42.45;96469.06;5051100;28;20061;-71
2021/06/01 08:05:20;;;;;;;8.00;3.35;;;;;;;17.59;43.17;96469.50;5050452;28;20053;-71
2021/06/01 08:07:47;;;;;;;10.15;4.30;;;;;;;18.24;45.51;96460.59;5050692;28;20100;-71
2021/06/01 08:10:15;;;;;;;10.02;4.10;;;;;;;19.89;40.02;96458.47;5050265;28;20049;-72
2021/06/01 08:12:41;;;;;;;7.72;3.00;;;;;;;21.28;36.63;96460.66;5050576;28;20124;-71
2021/06/01 08:15:08;;;;;;;9.70;3.45;;;;;;;22.58;35.22;96460.09;5050030;28;20068;-71
2021/06/01 08:17:35;;;;;;;7.68;3.55;;;;;;;23.57;32.56;96456.56;5050578;28;20091;-71
2021/06/01 08:20:10;;;;;;;7.47;2.97;;;;;;;24.10;29.15;96452.84;5052554;28;20652;-71
2021/06/01 08:22:38;;;;;;;5.28;3.25;;;;;;;24.60;28.15;96454.59;5054315;28;20039;-70
2021/06/01 08:25:05;;;;;;;8.65;3.85;;;;;;;25.12;29.58;96452.66;5053796;28;20087;-71
2021/06/01 08:27:31;;;;;;;9.07;3.47;;;;;;;25.58;26.41;96453.41;5046889;28;20052;-71
2021/06/01 08:29:57;;;;;;;7.35;3.42;;;;;;;25.74;25.60;96450.88;5034298;28;20046;-71
2021/06/01 08:32:23;;;;;;;7.88;3.45;;;;;;;25.99;26.03;96445.03;5052582;28;20120;-71
2021/06/01 08:34:49;;;;;;;10.07;3.60;;;;;;;26.33;28.43;96452.59;5054469;28;20048;-71
2021/06/01 08:37:15;;;;;;;8.27;3.60;;;;;;;26.57;27.12;96443.09;5053769;28;20053;-71
2021/06/01 08:39:43;;;;;;;8.50;3.50;;;;;;;26.95;24.77;96448.53;5054056;28;20045;-72
2021/06/01 08:42:09;;;;;;;7.53;3.35;;;;;;;27.11;24.20;96445.91;5053631;28;20049;-71
2021/06/01 08:44:35;;;;;;;11.32;3.30;;;;;;;27.23;24.95;96442.50;5054104;28;20045;-72
2021/06/01 08:47:02;;;;;;;9.18;3.40;;;;;;;27.44;23.18;96440.53;5053663;28;20061;-72
2021/06/01 08:49:28;;;;;;;8.27;2.60;;;;;;;27.23;23.95;96444.50;5053954;28;20076;-72
2021/06/01 08:51:54;;;;;;;7.05;3.25;;;;;;;27.50;23.58;96441.63;5053943;28;20082;-72
2021/06/01 08:54:20;;;;;;;7.93;3.30;;;;;;;27.46;22.01;96440.88;5053195;28;20040;-72
2021/06/01 08:56:47;;;;;;;18.60;4.55;;;;;;;27.51;23.39;96443.19;5052400;28;20049;-72
2021/06/01 08:59:14;;;;;;;12.13;3.75;;;;;;;27.23;22.30;96444.50;5032508;28;20046;-72
2021/06/01 09:01:41;;;;;;;14.95;3.80;;;;;;;26.94;21.69;96438.56;5046597;28;20037;-70
2021/06/01 09:04:09;;;;;;;13.70;3.58;;;;;;;26.73;23.06;96445.28;5035367;28;20052;-72
2021/06/01 09:06:38;;;;;;;8.80;3.25;;;;;;;26.71;22.26;96442.09;5053578;28;20135;-72
2021/06/01 09:09:24;;;;;;;12.68;3.15;;;;;;;26.64;25.13;96431.84;5053154;28;20048;-72
2021/06/01 09:12:00;;;;;;;12.23;3.80;;;;;;;25.98;22.90;96437.88;5053324;28;20174;-71
2021/06/01 09:14:56;;;;;;;13.45;3.53;;;;;;;25.45;24.96;96431.63;5052999;28;20079;-71
2021/06/01 09:22:55;;;;;;;9.35;3.42;;;;;;;24.18;25.02;96434.13;5053623;28;20052;-72
2021/06/01 09:25:29;;;;;;;8.80;3.10;;;;;;;23.67;27.96;96436.31;5052686;28;20053;-70
2021/06/01 09:27:57;;;;;;;10.85;3.38;;;;;;;23.28;29.43;96432.78;5042538;28;20041;-71
2021/06/01 09:30:36;;;;;;;7.55;3.20;;;;;;;23.13;28.53;96427.25;5035023;28;20038;-71
2021/06/01 09:33:03;;;;;;;10.82;3.45;;;;;;;22.97;29.98;96426.06;5052457;28;20045;-71
2021/06/01 09:35:47;;;;;;;12.23;3.72;;;;;;;22.84;29.99;96426.44;5053130;28;20045;-71
2021/06/01 09:38:15;;;;;;;8.80;3.33;;;;;;;22.87;31.29;96424.84;5052366;28;20041;-71
2021/06/01 09:40:42;;;;;;;8.70;3.38;;;;;;;22.89;32.31;96428.84;5052987;28;20045;-71
2021/06/01 09:43:11;;;;;;;9.00;3.40;;;;;;;22.91;32.65;96431.22;5052133;28;20500;-71
2021/06/01 09:45:38;;;;;;;9.18;3.20;;;;;;;22.83;27.58;96426.84;5053000;28;20041;-71
2021/06/01 09:48:07;;;;;;;11.02;3.63;;;;;;;22.64;32.30;96426.00;5052675;28;20044;-71
2021/06/01 09:50:38;;;;;;;11.23;3.47;;;;;;;22.64;29.65;96417.69;5052790;28;20049;-71
2021/06/01 09:53:07;;;;;;;13.45;4.68;;;;;;;22.69;29.00;96421.25;5052209;28;20389;-71
2021/06/01 09:55:40;;;;;;;9.43;3.47;;;;;;;22.66;28.60;96409.78;5052487;28;20102;-70
2021/06/01 09:58:08;;;;;;;10.88;3.42;;;;;;;22.64;29.42;96414.13;5040103;28;20050;-71
2021/06/01 10:00:39;;;;;;;11.82;3.63;;;;;;;22.76;35.29;96408.19;5036583;28;20527;-71
2021/06/01 10:03:09;;;;;;;7.75;3.17;;;;;;;22.87;29.73;96408.19;5052097;28;20049;-71
2021/06/01 10:05:36;;;;;;;7.68;3.05;;;;;;;22.99;31.18;96398.69;5052469;28;20562;-71
2021/06/01 10:08:12;;;;;;;12.02;3.50;;;;;;;23.06;30.08;96396.69;5051822;28;20040;-71
2021/06/01 10:10:38;;;;;;;6.88;2.95;;;;;;;23.09;29.36;96401.47;5052630;28;20041;-71
2021/06/01 10:13:06;;;;;;;9.57;3.95;;;;;;;23.10;28.65;96389.16;5051837;28;20052;-72
2021/06/01 10:15:33;;;;;;;10.77;3.45;;;;;;;23.18;30.32;96389.94;5052325;28;20045;-70
2021/06/01 10:18:01;;;;;;;8.82;3.33;;;;;;;23.17;29.92;96391.13;5052306;28;20057;-71
2021/06/01 10:20:30;;;;;;;12.45;3.70;;;;;;;23.18;28.73;96395.50;5051975;28;20044;-71
2021/06/01 10:22:56;;;;;;;12.75;3.80;;;;;;;23.23;29.17;96377.63;5052030;28;20045;-71
2021/06/01 10:25:22;;;;;;;10.18;3.67;;;;;;;23.24;28.25;96382.00;5051526;28;20049;-71
2021/06/01 10:27:49;;;;;;;9.48;3.50;;;;;;;23.22;31.67;96385.16;5042458;28;20499;-71
2021/06/01 10:30:17;;;;;;;8.13;3.28;;;;;;;23.34;29.89;96381.19;5032858;28;20711;-71
2021/06/01 10:32:46;;;;;;;8.15;3.10;;;;;;;23.30;31.41;96380.41;5051904;28;20045;-71
2021/06/01 10:35:18;;;;;;;8.20;3.22;;;;;;;23.34;30.42;96381.19;5051585;28;20045;-70
2021/06/01 10:52:17;;;;;;;9.68;3.90;;;;;;;23.36;31.91;96378.78;5051033;28;20511;-72
2021/06/01 10:54:57;;;;;;;11.65;4.13;;;;;;;23.49;32.41;96370.81;5051596;28;20041;-72
2021/06/01 10:57:24;;;;;;;9.70;3.78;;;;;;;23.55;31.46;96363.66;5045439;28;20500;-72
2021/06/01 11:01:49;;;;;;;8.35;3.72;;;;;;;23.55;30.56;96364.44;5031530;28;20107;-71
2021/06/01 11:03:01;;;;;;;9.00;3.60;;;;;;;23.59;30.75;96362.41;5051192;28;20492;-70
2021/06/01 11:05:27;;;;;;;7.25;3.05;;;;;;;23.56;33.97;96366.03;5051290;28;20045;-70
2021/06/01 11:07:57;;;;;;;8.82;3.58;;;;;;;23.64;30.58;96355.69;5051517;28;20775;-71
2021/06/01 11:10:40;;;;;;;9.32;3.85;;;;;;;23.63;31.26;96354.09;5050804;28;20050;-71
2021/06/01 11:13:07;;;;;;;12.32;3.50;;;;;;;23.66;32.88;96358.88;5050623;28;20052;-72
2021/06/01 11:15:36;;;;;;;10.48;4.18;;;;;;;23.70;33.83;96348.53;5051090;28;20056;-70
2021/06/01 11:18:26;;;;;;;10.32;4.10;;;;;;;23.56;32.62;96346.56;5050869;28;20041;-72
2021/06/01 11:21:07;;;;;;;7.47;3.25;;;;;;;23.56;32.27;96346.56;5051120;28;20506;-70
2021/06/01 11:32:59;;;;;;;7.13;3.28;;;;;;;23.63;31.57;96343.78;5011287;28;20053;-70
2021/06/01 11:35:28;;;;;;;10.52;4.57;;;;;;;23.55;33.24;96336.66;5010842;28;20041;-70
2021/06/01 11:38:00;;;;;;;9.15;3.88;;;;;;;23.50;30.31;96325.16;5011413;28;20052;-72
2021/06/01 11:40:33;;;;;;;8.50;3.90;;;;;;;23.39;30.99;96314.09;5011080;28;20124;-72
2021/06/01 11:43:06;;;;;;;;;;;;;;;23.27;31.50;96315.28;5011812;28;20054;-72
2021/06/01 11:45:44;;;;;;;7.00;3.15;;;;;;;23.21;32.46;96310.56;5011201;28;19921;-71
2021/06/01 11:48:24;;;;;;;12.00;3.38;;;;;;;23.19;30.25;96313.75;5011066;28;20120;-72
2021/06/01 11:51:11;;;;;;;6.65;3.00;;;;;;;23.02;29.03;96312.59;5011129;28;20046;-72
2021/06/01 11:53:47;;;;;;;10.52;3.08;;;;;;;22.97;33.64;96306.66;5011020;28;20069;-72
2021/06/01 11:56:18;;;;;;;10.48;3.30;;;;;;;22.97;30.48;96306.66;5014342;28;20771;-72
2021/06/01 12:04:34;;;;;;;12.77;3.60;;;;;;;22.77;32.83;96306.28;5054442;28;20043;-72
2021/06/01 12:12:44;;;;;;;9.30;2.97;;;;;;;22.85;30.67;96299.50;5054465;28;20047;-73
2021/06/01 12:18:01;;;;;;;10.13;2.70;;;;;;;22.80;30.95;96291.59;5054598;28;20052;-71
2021/06/01 12:20:27;;;;;;;10.73;3.15;;;;;;;22.60;29.76;96294.78;5054238;28;20067;-72
2021/06/01 12:22:53;;;;;;;13.80;3.50;;;;;;;22.47;32.61;96285.28;5054562;28;20041;-72